Time;durP1;ratioP1;P1;durP2;ratioP2;P2;SDS_P1;SDS_P2;PMS_P1;PMS_P2;Temp;Humidity;BMP_temperature;BMP_pressure;BME280_temperature;BME280_humidity;BME280_pressure;Samples;Min_cycle;Max_cycle;Signal;HPM_P1;HPM_P2
2023/08/09 00:00:43;;;;;;;11.45;4.25;;;16.10;99.90;;;;;;4915623;29;20024;-72
2023/08/09 00:03:09;;;;;;;8.63;4.00;;;16.10;99.90;;;;;;4915300;29;20432;-73
2023/08/09 00:05:35;;;;;;;6.97;3.35;;;;;;;;;;4916087;29;20473;-73
2023/08/09 00:08:03;;;;;;;7.95;3.92;;;16.10;99.90;;;;;;4915169;29;20052;-74
2023/08/09 00:10:29;;;;;;;12.95;4.80;;;16.10;99.90;;;;;;4915440;29;20056;-74
2023/08/09 00:12:55;;;;;;;8.90;3.97;;;16.00;99.90;;;;;;4914860;29;20028;-73
2023/08/09 00:15:21;;;;;;;11.95;3.75;;;15.90;99.90;;;;;;4914639;29;20036;-73
2023/08/09 00:17:47;;;;;;;6.20;3.92;;;15.90;99.90;;;;;;4915181;29;20114;-72
2023/08/09 00:20:13;;;;;;;8.43;4.13;;;15.80;99.90;;;;;;4915343;29;20108;-72
2023/08/09 00:22:40;;;;;;;14.00;4.00;;;15.70;99.90;;;;;;4915246;29;20439;-72
2023/08/09 00:25:07;;;;;;;9.95;3.67;;;15.70;99.90;;;;;;4914968;29;20376;-72
2023/08/09 00:27:33;;;;;;;14.10;5.35;;;15.70;99.90;;;;;;4915232;29;20388;-72
2023/08/09 00:29:59;;;;;;;8.80;3.60;;;15.70;99.90;;;;;;4915000;29;20132;-72
2023/08/09 00:32:24;;;;;;;7.75;3.45;;;15.70;99.90;;;;;;4913543;29;20098;-73
2023/08/09 00:34:51;;;;;;;9.63;4.28;;;15.70;99.90;;;;;;4901607;29;20036;-72
2023/08/09 00:37:18;;;;;;;14.10;4.18;;;15.70;99.90;;;;;;4914837;29;20114;-73
2023/08/09 00:39:44;;;;;;;6.57;3.50;;;15.60;99.90;;;;;;4914876;29;20238;-73
2023/08/09 00:42:10;;;;;;;6.47;3.60;;;15.50;99.90;;;;;;4914906;29;20161;-72
2023/08/09 00:44:36;;;;;;;8.27;3.13;;;15.50;99.90;;;;;;4914043;29;20120;-72
2023/08/09 00:47:02;;;;;;;9.77;3.40;;;15.50;99.90;;;;;;4912618;29;20044;-73
2023/08/09 00:49:28;;;;;;;9.30;3.85;;;15.50;99.90;;;;;;4914288;29;20480;-72
2023/08/09 00:51:53;;;;;;;11.13;4.00;;;15.40;99.90;;;;;;4914715;29;20024;-72
2023/08/09 00:54:21;;;;;;;9.15;3.63;;;15.40;99.90;;;;;;4897854;29;20469;-73
2023/08/09 00:56:47;;;;;;;9.40;3.05;;;15.40;99.90;;;;;;4897915;29;20058;-73
2023/08/09 00:59:13;;;;;;;9.85;4.07;;;15.40;99.90;;;;;;4897688;29;20480;-73
2023/08/09 01:01:39;;;;;;;8.65;3.30;;;15.30;99.90;;;;;;4914405;29;20035;-72
2023/08/09 01:04:05;;;;;;;16.23;5.05;;;15.30;99.90;;;;;;4918591;29;20063;-72
2023/08/09 01:06:37;;;;;;;15.00;4.60;;;15.30;99.90;;;;;;4934684;29;20110;-72
2023/08/09 01:09:09;;;;;;;11.15;4.65;;;15.30;99.90;;;;;;4917686;29;20048;-73
2023/08/09 01:11:57;;;;;;;9.55;4.25;;;15.30;99.90;;;;;;4917888;29;20087;-72
2023/08/09 01:14:24;;;;;;;21.98;5.13;;;15.30;99.90;;;;;;4934751;29;20027;-72
2023/08/09 01:16:53;;;;;;;14.50;4.60;;;15.10;99.90;;;;;;4935007;29;20124;-72
2023/08/09 01:19:29;;;;;;;10.43;4.00;;;15.20;99.90;;;;;;4917383;29;20059;-72
2023/08/09 01:21:59;;;;;;;9.02;4.25;;;15.20;99.90;;;;;;4934750;29;20035;-73
2023/08/09 01:24:25;;;;;;;6.60;4.40;;;15.20;99.90;;;;;;4917808;29;20031;-73
2023/08/09 01:26:51;;;;;;;8.20;4.43;;;15.20;99.90;;;;;;4934567;29;20094;-72
2023/08/09 01:29:17;;;;;;;11.25;4.65;;;15.20;99.90;;;;;;4934872;29;20019;-72
2023/08/09 01:31:43;;;;;;;6.40;4.03;;;15.20;99.90;;;;;;4917415;29;20443;-73
2023/08/09 01:34:10;;;;;;;12.40;4.03;;;15.30;99.90;;;;;;4934668;29;20384;-72
2023/08/09 01:36:41;;;;;;;9.13;3.92;;;15.30;99.90;;;;;;4934387;29;20115;-72
2023/08/09 01:39:12;;;;;;;10.05;3.97;;;15.20;99.90;;;;;;4917343;29;20074;-72
2023/08/09 01:41:39;;;;;;;13.02;4.53;;;15.20;99.90;;;;;;4934743;29;20040;-72
2023/08/09 01:44:06;;;;;;;8.25;4.53;;;15.20;99.90;;;;;;4919562;29;20476;-73
2023/08/09 01:46:32;;;;;;;10.52;4.72;;;15.10;99.90;;;;;;4938521;29;20151;-73
2023/08/09 01:49:12;;;;;;;12.90;5.75;;;15.20;99.90;;;;;;4921205;29;20042;-72
2023/08/09 01:51:39;;;;;;;11.68;5.22;;;15.10;99.90;;;;;;4920993;29;20122;-72
2023/08/09 01:54:06;;;;;;;13.73;5.75;;;15.20;99.90;;;;;;4938351;29;20020;-73
2023/08/09 01:56:32;;;;;;;12.90;5.70;;;;;;;;;;4938010;29;20032;-74
2023/08/09 01:58:59;;;;;;;14.55;4.85;;;15.00;99.90;;;;;;4921296;29;20059;-73
2023/08/09 02:01:25;;;;;;;11.10;5.50;;;15.00;99.90;;;;;;4921152;29;20091;-72
2023/08/09 02:03:51;;;;;;;16.08;6.20;;;15.00;99.90;;;;;;4920986;29;20028;-72
2023/08/09 02:06:17;;;;;;;10.93;6.47;;;14.90;99.90;;;;;;4920828;29;20047;-72
2023/08/09 02:08:44;;;;;;;11.20;5.65;;;14.90;99.90;;;;;;4920972;29;20040;-73
2023/08/09 02:11:12;;;;;;;11.32;5.72;;;15.00;99.90;;;;;;4937835;29;20539;-73
2023/08/09 02:13:39;;;;;;;11.73;5.35;;;15.00;99.90;;;;;;4938217;29;20107;-73
2023/08/09 02:16:06;;;;;;;8.60;4.68;;;15.00;99.90;;;;;;4920895;29;20082;-73
2023/08/09 02:18:35;;;;;;;11.98;4.82;;;15.00;99.90;;;;;;4937807;29;20352;-73
2023/08/09 02:21:05;;;;;;;11.50;5.22;;;15.00;99.90;;;;;;4920928;29;20028;-73
2023/08/09 02:23:31;;;;;;;9.45;4.05;;;15.00;99.90;;;;;;4937661;29;20027;-73
2023/08/09 02:25:57;;;;;;;10.88;4.80;;;15.00;99.90;;;;;;4920574;29;20476;-72
2023/08/09 02:28:23;;;;;;;10.65;4.95;;;15.10;99.90;;;;;;4920708;29;20076;-74
2023/08/09 02:30:49;;;;;;;8.35;4.30;;;15.10;99.90;;;;;;4937780;29;20027;-72
2023/08/09 02:33:17;;;;;;;8.77;4.97;;;15.00;99.90;;;;;;4937490;29;20024;-73
2023/08/09 02:35:54;;;;;;;8.60;4.75;;;14.90;99.90;;;;;;4937605;29;20030;-73
2023/08/09 02:38:21;;;;;;;8.30;4.20;;;14.90;99.90;;;;;;4920186;29;20529;-73
2023/08/09 02:40:49;;;;;;;9.23;5.03;;;14.80;99.90;;;;;;4937487;29;20498;-73
2023/08/09 02:43:16;;;;;;;9.82;4.20;;;14.70;99.90;;;;;;4904900;29;20035;-73
2023/08/09 02:45:43;;;;;;;8.63;4.55;;;14.60;99.90;;;;;;4937375;29;20024;-73
2023/08/09 02:48:10;;;;;;;9.23;4.82;;;14.60;99.90;;;;;;4937495;29;20491;-74
2023/08/09 02:50:36;;;;;;;8.18;3.80;;;14.60;99.90;;;;;;4920079;29;20043;-73
2023/08/09 02:53:03;;;;;;;7.10;3.92;;;14.60;99.90;;;;;;4920167;29;20032;-72
2023/08/09 02:55:32;;;;;;;8.00;3.83;;;14.50;99.90;;;;;;4937035;29;20027;-73
2023/08/09 02:58:00;;;;;;;9.75;4.70;;;14.50;99.90;;;;;;4922114;29;20160;-74
2023/08/09 03:00:26;;;;;;;34.05;19.73;;;14.40;99.90;;;;;;4937281;29;20022;-73
2023/08/09 03:02:52;;;;;;;42.08;28.90;;;14.40;99.90;;;;;;4919884;29;20118;-73
2023/08/09 03:05:18;;;;;;;37.17;22.52;;;14.30;99.90;;;;;;4919815;29;20336;-73
2023/08/09 03:07:44;;;;;;;26.77;15.25;;;14.30;99.90;;;;;;4919138;29;20051;-74
2023/08/09 03:10:10;;;;;;;21.65;11.15;;;14.30;99.90;;;;;;4919892;29;20024;-73
2023/08/09 03:12:36;;;;;;;14.93;8.00;;;14.40;99.90;;;;;;4936924;29;20049;-74
2023/08/09 03:15:04;;;;;;;15.32;6.85;;;14.40;99.90;;;;;;4937267;29;20052;-74
2023/08/09 03:17:30;;;;;;;12.20;6.15;;;14.30;99.90;;;;;;4904082;29;20094;-74
2023/08/09 03:19:57;;;;;;;12.45;5.68;;;14.30;99.90;;;;;;4919552;29;20508;-73
2023/08/09 03:22:23;;;;;;;8.95;4.63;;;14.30;99.90;;;;;;4903990;29;20074;-73
2023/08/09 03:24:50;;;;;;;13.10;4.63;;;14.40;99.90;;;;;;4936615;29;20023;-73
2023/08/09 03:27:16;;;;;;;9.30;4.28;;;14.30;99.90;;;;;;4919523;29;20514;-74
2023/08/09 03:29:43;;;;;;;9.68;4.85;;;14.30;99.90;;;;;;4919414;29;20629;-73
2023/08/09 03:32:09;;;;;;;11.95;4.78;;;14.30;99.90;;;;;;4924087;29;20440;-73
2023/08/09 03:34:35;;;;;;;8.32;4.03;;;14.30;99.90;;;;;;4919328;29;20037;-73
2023/08/09 03:37:03;;;;;;;8.70;3.97;;;14.30;99.90;;;;;;4916162;29;20036;-73
2023/08/09 03:39:29;;;;;;;11.38;4.43;;;14.30;99.90;;;;;;4913239;29;20044;-73
2023/08/09 03:41:57;;;;;;;5.93;3.70;;;14.30;99.90;;;;;;4903462;29;20136;-73
2023/08/09 03:44:23;;;;;;;9.02;4.45;;;14.40;99.90;;;;;;4919206;29;20028;-73
2023/08/09 03:46:48;;;;;;;11.38;4.65;;;14.40;99.90;;;;;;4936000;29;20028;-73
2023/08/09 03:49:14;;;;;;;8.07;4.18;;;14.40;99.90;;;;;;4936057;29;20042;-73
2023/08/09 03:51:41;;;;;;;8.05;4.20;;;14.70;99.90;;;;;;4919026;29;20483;-73
2023/08/09 03:54:06;;;;;;;12.20;4.30;;;15.20;99.90;;;;;;4918958;29;20042;-73
2023/08/09 03:56:32;;;;;;;8.65;3.58;;;15.60;99.90;;;;;;4919021;29;20454;-73
2023/08/09 03:58:58;;;;;;;8.43;4.35;;;16.00;99.90;;;;;;4936225;29;20488;-72
2023/08/09 04:01:24;;;;;;;8.18;4.60;;;16.30;99.90;;;;;;4936030;29;20039;-73
2023/08/09 04:03:50;;;;;;;7.97;3.92;;;16.80;99.90;;;;;;4931442;29;20039;-74
2023/08/09 04:06:15;;;;;;;8.27;4.32;;;17.30;99.90;;;;;;4917729;29;20400;-74
2023/08/09 04:08:41;;;;;;;7.38;4.40;;;17.90;99.90;;;;;;4935434;29;20048;-73
2023/08/09 04:11:07;;;;;;;12.10;3.67;;;18.50;99.90;;;;;;4918829;29;20123;-73
2023/08/09 04:13:33;;;;;;;8.88;4.10;;;18.90;99.90;;;;;;4935702;29;20034;-74
2023/08/09 04:15:59;;;;;;;9.45;3.95;;;19.40;99.90;;;;;;4918750;29;20132;-74
2023/08/09 04:18:25;;;;;;;11.30;4.00;;;19.50;98.80;;;;;;4918554;29;20032;-74
2023/08/09 04:20:51;;;;;;;12.45;4.18;;;19.70;98.50;;;;;;4918536;29;20028;-74
2023/08/09 04:23:18;;;;;;;7.28;3.58;;;20.00;97.60;;;;;;4918426;29;20032;-74
2023/08/09 04:25:46;;;;;;;6.93;3.70;;;20.30;97.00;;;;;;4935637;29;20045;-74
2023/08/09 04:28:12;;;;;;;8.73;4.20;;;20.80;96.00;;;;;;4935381;29;20035;-73
2023/08/09 04:30:38;;;;;;;9.82;3.80;;;21.30;94.70;;;;;;4935560;29;20112;-75
2023/08/09 04:33:04;;;;;;;9.68;3.63;;;21.90;93.20;;;;;;4935320;29;20106;-74
2023/08/09 04:35:33;;;;;;;8.18;4.47;;;22.20;92.70;;;;;;4917737;29;20115;-75
2023/08/09 04:37:59;;;;;;;9.73;4.95;;;22.70;91.10;;;;;;4918480;29;20040;-75
2023/08/09 04:40:25;;;;;;;7.22;4.03;;;22.90;90.30;;;;;;4934528;29;20035;-74
2023/08/09 04:42:51;;;;;;;7.75;3.70;;;23.40;88.60;;;;;;4935395;29;20110;-73
2023/08/09 04:45:17;;;;;;;8.52;3.95;;;23.60;88.80;;;;;;4934618;29;20024;-74
2023/08/09 04:47:43;;;;;;;10.82;4.00;;;23.70;87.70;;;;;;4934911;29;20071;-75
2023/08/09 04:50:10;;;;;;;7.80;3.20;;;;;;;;;;4934935;29;20028;-74
2023/08/09 04:52:37;;;;;;;6.00;3.10;;;24.10;84.50;;;;;;4935297;29;20039;-74
2023/08/09 04:55:03;;;;;;;4.60;2.78;;;24.00;84.50;;;;;;4934839;29;20023;-74
2023/08/09 04:57:31;;;;;;;6.07;2.78;;;24.30;82.90;;;;;;4935112;29;20028;-73
2023/08/09 04:59:57;;;;;;;5.90;2.85;;;24.50;82.70;;;;;;4917795;29;20036;-73
2023/08/09 05:02:23;;;;;;;4.05;2.63;;;24.70;82.90;;;;;;4922020;29;20118;-72
2023/08/09 05:04:49;;;;;;;4.55;2.78;;;25.20;81.60;;;;;;4934977;29;20058;-73
2023/08/09 05:07:15;;;;;;;8.77;2.38;;;25.30;81.60;;;;;;4934362;29;20071;-73
2023/08/09 05:09:41;;;;;;;6.95;3.08;;;25.40;80.60;;;;;;4934811;29;20130;-72
2023/08/09 05:12:07;;;;;;;5.78;2.72;;;24.40;81.70;;;;;;4922168;29;20496;-73
2023/08/09 05:14:33;;;;;;;4.45;2.13;;;23.30;86.60;;;;;;4916925;29;20133;-72
2023/08/09 05:16:58;;;;;;;14.25;3.22;;;22.70;84.70;;;;;;4913589;29;20040;-73
2023/08/09 05:19:24;;;;;;;4.68;3.10;;;22.10;87.80;;;;;;4933546;29;20487;-73
2023/08/09 05:21:50;;;;;;;10.02;3.90;;;21.60;90.50;;;;;;4918287;29;20028;-73
2023/08/09 05:24:16;;;;;;;8.18;4.45;;;21.10;91.40;;;;;;4917289;29;20103;-73
2023/08/09 05:26:42;;;;;;;9.15;4.50;;;20.80;93.20;;;;;;4916325;29;20095;-73
2023/08/09 05:29:08;;;;;;;8.50;4.55;;;20.50;93.80;;;;;;4921763;29;20039;-73
2023/08/09 05:31:34;;;;;;;12.40;4.60;;;20.40;95.40;;;;;;4915453;29;20040;-73
2023/08/09 05:33:59;;;;;;;11.40;4.70;;;20.40;96.80;;;;;;4915412;29;20052;-73
2023/08/09 05:36:25;;;;;;;10.50;4.80;;;20.40;98.10;;;;;;4921196;29;20040;-73
2023/08/09 05:38:51;;;;;;;11.15;4.65;;;20.40;99.00;;;;;;4934632;29;20479;-73
2023/08/09 05:41:17;;;;;;;8.73;4.32;;;20.60;99.70;;;;;;4934535;29;20046;-74
2023/08/09 05:43:43;;;;;;;8.40;4.13;;;20.60;99.90;;;;;;4934536;29;20032;-73
2023/08/09 05:46:09;;;;;;;13.60;4.60;;;20.60;99.90;;;;;;4917543;29;20059;-73
2023/08/09 05:48:35;;;;;;;7.45;4.18;;;20.50;99.90;;;;;;4925776;29;20520;-75
2023/08/09 05:51:01;;;;;;;17.40;4.32;;;20.50;99.90;;;;;;4922224;29;20019;-73
2023/08/09 05:53:27;;;;;;;9.63;5.15;;;20.60;99.90;;;;;;4908702;29;20576;-73
2023/08/09 05:55:53;;;;;;;13.32;5.72;;;20.70;99.90;;;;;;4917893;29;20068;-74
2023/08/09 05:58:20;;;;;;;11.35;4.57;;;20.80;99.90;;;;;;4932260;29;20086;-73
2023/08/09 06:00:48;;;;;;;8.90;4.63;;;20.90;99.70;;;;;;4935708;29;20546;-74
2023/08/09 06:03:17;;;;;;;9.80;5.10;;;21.10;99.40;;;;;;4918995;29;20031;-74
2023/08/09 06:05:43;;;;;;;9.40;4.57;;;21.20;99.70;;;;;;4935278;29;20032;-73
2023/08/09 06:08:09;;;;;;;10.77;4.80;;;21.30;99.60;;;;;;4929903;29;20451;-74
2023/08/09 06:10:35;;;;;;;9.75;4.20;;;21.40;98.60;;;;;;4935270;29;20036;-74
2023/08/09 06:13:01;;;;;;;13.90;3.90;;;21.60;97.70;;;;;;4934983;29;20078;-73
2023/08/09 06:15:27;;;;;;;11.93;4.35;;;21.60;97.40;;;;;;4935000;29;20464;-76
2023/08/09 06:17:52;;;;;;;13.75;5.40;;;21.80;97.30;;;;;;4922178;29;20028;-73
2023/08/09 06:20:21;;;;;;;9.52;4.75;;;21.90;96.80;;;;;;4932056;29;20341;-73
2023/08/09 06:22:48;;;;;;;9.70;4.50;;;22.10;97.10;;;;;;4935313;29;20036;-74
2023/08/09 06:25:14;;;;;;;10.23;3.92;;;22.10;97.20;;;;;;4935051;29;20055;-73
2023/08/09 06:27:40;;;;;;;11.43;5.68;;;22.20;96.60;;;;;;4934463;29;20492;-74
2023/08/09 06:30:06;;;;;;;13.95;4.43;;;22.50;97.50;;;;;;4937318;29;20055;-74
2023/08/09 06:32:33;;;;;;;9.80;4.82;;;22.60;96.20;;;;;;4904176;29;20544;-74
2023/08/09 06:34:59;;;;;;;9.82;4.80;;;22.20;95.80;;;;;;4902736;29;20373;-74
2023/08/09 06:37:25;;;;;;;10.75;4.20;;;22.60;96.80;;;;;;4937914;29;20032;-74
2023/08/09 06:39:51;;;;;;;8.23;5.25;;;22.50;96.10;;;;;;4938454;29;20038;-73
2023/08/09 06:42:17;;;;;;;13.90;4.72;;;22.70;96.70;;;;;;4925263;29;20028;-74
2023/08/09 06:44:46;;;;;;;10.15;5.18;;;22.90;95.70;;;;;;4921424;29;20432;-74
2023/08/09 06:47:12;;;;;;;17.70;4.78;;;23.00;96.30;;;;;;4938124;29;20039;-73
2023/08/09 06:49:38;;;;;;;16.77;5.35;;;23.10;96.80;;;;;;4938414;29;20035;-73
2023/08/09 06:52:04;;;;;;;11.85;4.38;;;23.20;95.50;;;;;;4938090;29;20384;-73
2023/08/09 06:54:30;;;;;;;8.05;4.07;;;23.30;95.10;;;;;;4937895;29;20027;-74
2023/08/09 06:56:55;;;;;;;14.27;4.55;;;23.30;95.10;;;;;;4938243;29;20067;-74
2023/08/09 06:59:21;;;;;;;8.25;4.65;;;23.20;94.50;;;;;;4937539;29;20028;-74
2023/08/09 07:01:48;;;;;;;13.75;5.80;;;23.50;94.50;;;;;;4926756;29;20083;-73
2023/08/09 07:04:15;;;;;;;11.32;5.38;;;23.80;94.20;;;;;;4929337;29;20119;-74
2023/08/09 07:06:41;;;;;;;8.82;4.40;;;24.00;92.70;;;;;;4924853;29;20035;-73
2023/08/09 07:09:07;;;;;;;11.60;5.25;;;24.20;91.90;;;;;;4932970;29;20404;-74
2023/08/09 07:11:33;;;;;;;11.65;4.60;;;23.60;91.60;;;;;;4934609;29;20028;-74
2023/08/09 07:14:01;;;;;;;8.52;4.32;;;23.40;92.90;;;;;;4937653;29;20026;-75
2023/08/09 07:16:28;;;;;;;13.13;4.88;;;23.70;93.30;;;;;;4937967;29;20181;-74
2023/08/09 07:18:53;;;;;;;13.30;4.75;;;23.90;93.00;;;;;;4928990;29;20028;-74
2023/08/09 07:21:20;;;;;;;11.43;3.83;;;24.30;92.10;;;;;;4937200;29;20031;-75
2023/08/09 07:23:46;;;;;;;9.02;3.97;;;24.50;92.40;;;;;;4920847;29;20369;-74
2023/08/09 07:26:12;;;;;;;9.52;4.55;;;24.70;92.30;;;;;;4937809;29;20043;-75
2023/08/09 07:28:38;;;;;;;9.73;3.63;;;24.90;90.80;;;;;;4920280;29;20437;-75
2023/08/09 07:31:15;;;;;;;7.65;2.90;;;24.90;89.10;;;;;;4937751;29;20028;-74
2023/08/09 07:33:41;;;;;;;7.63;3.13;;;25.00;88.50;;;;;;4937421;29;20023;-74
2023/08/09 07:36:06;;;;;;;6.30;2.97;;;24.60;86.80;;;;;;4937302;29;20034;-75
2023/08/09 07:38:34;;;;;;;3.13;2.33;;;24.60;88.70;;;;;;4920425;29;20032;-74
2023/08/09 07:41:01;;;;;;;9.98;2.35;;;24.80;85.10;;;;;;4936095;29;20551;-74
2023/08/09 07:43:27;;;;;;;4.28;1.83;;;24.50;83.10;;;;;;4937611;29;20498;-74
2023/08/09 07:45:54;;;;;;;3.97;1.80;;;24.30;82.30;;;;;;4937162;29;20026;-74
2023/08/09 07:48:19;;;;;;;5.03;2.35;;;24.90;84.60;;;;;;4936942;29;20043;-74
2023/08/09 07:50:46;;;;;;;5.05;2.40;;;24.40;82.00;;;;;;4926106;29;20032;-74
2023/08/09 07:53:12;;;;;;;5.47;2.38;;;24.80;85.30;;;;;;4934745;29;20032;-74
2023/08/09 07:55:39;;;;;;;3.72;2.13;;;24.80;86.10;;;;;;4936614;29;20031;-73
2023/08/09 07:58:05;;;;;;;7.95;2.33;;;25.30;89.00;;;;;;4936284;29;20024;-73
2023/08/09 08:00:33;;;;;;;7.38;2.50;;;24.70;83.80;;;;;;4935886;29;20042;-73
2023/08/09 08:02:59;;;;;;;4.05;2.00;;;25.00;90.20;;;;;;4936084;29;20032;-73
2023/08/09 08:05:25;;;;;;;7.32;2.38;;;25.50;88.70;;;;;;4935701;29;20419;-73
2023/08/09 08:07:51;;;;;;;6.07;2.00;;;25.60;87.90;;;;;;4929575;29;20107;-74
2023/08/09 08:10:18;;;;;;;4.93;2.45;;;25.20;83.00;;;;;;4916279;29;20020;-73
2023/08/09 08:12:46;;;;;;;6.32;2.60;;;25.30;85.60;;;;;;4925854;29;20123;-74
2023/08/09 08:15:12;;;;;;;3.38;1.92;;;25.20;84.50;;;;;;4935692;29;20030;-74
2023/08/09 08:17:38;;;;;;;5.28;2.38;;;25.50;85.20;;;;;;4935766;29;20028;-73
2023/08/09 08:20:12;;;;;;;2.95;1.83;;;25.40;87.20;;;;;;4923525;29;20384;-74
2023/08/09 08:22:38;;;;;;;3.90;2.22;;;25.70;83.90;;;;;;4920176;29;20028;-73
2023/08/09 08:25:06;;;;;;;2.72;1.73;;;26.10;85.60;;;;;;4926329;29;20428;-74
2023/08/09 08:27:35;;;;;;;2.67;1.35;;;25.40;81.50;;;;;;4927021;29;20040;-74
2023/08/09 08:30:01;;;;;;;3.50;1.58;;;25.10;77.70;;;;;;4900151;29;20040;-74
2023/08/09 08:32:27;;;;;;;1.98;1.58;;;25.20;80.90;;;;;;4916302;29;20103;-74
2023/08/09 08:34:56;;;;;;;2.70;1.60;;;25.40;80.10;;;;;;4916422;29;20032;-74
2023/08/09 08:37:22;;;;;;;3.38;1.70;;;25.20;79.70;;;;;;4916632;29;20059;-74
2023/08/09 08:39:48;;;;;;;3.80;1.90;;;25.00;79.50;;;;;;4916253;29;20047;-74
2023/08/09 08:42:14;;;;;;;6.47;1.67;;;25.50;81.50;;;;;;4916015;29;20468;-74
2023/08/09 08:44:40;;;;;;;3.25;1.55;;;25.10;78.00;;;;;;4899139;29;20028;-74
2023/08/09 08:47:06;;;;;;;2.60;1.50;;;25.40;80.20;;;;;;4919394;29;20032;-73
2023/08/09 08:49:34;;;;;;;3.50;1.55;;;25.90;83.60;;;;;;4925749;29;20035;-73
2023/08/09 08:52:06;;;;;;;2.67;1.73;;;26.20;82.70;;;;;;4934997;29;20559;-73
2023/08/09 08:54:32;;;;;;;5.18;1.92;;;26.20;78.70;;;;;;4918046;29;20450;-73
2023/08/09 08:56:58;;;;;;;8.30;2.30;;;26.30;79.80;;;;;;4917610;29;20046;-73
2023/08/09 08:59:24;;;;;;;2.83;1.38;;;26.50;77.10;;;;;;4935106;29;20026;-73
2023/08/09 09:01:51;;;;;;;2.28;1.75;;;26.40;73.40;;;;;;4934821;29;20031;-73
2023/08/09 09:04:17;;;;;;;2.17;1.30;;;26.40;74.70;;;;;;4935395;29;20020;-73
2023/08/09 09:06:43;;;;;;;3.95;1.65;;;26.30;75.80;;;;;;4934473;29;20046;-72
2023/08/09 09:09:11;;;;;;;3.67;1.30;;;26.00;74.50;;;;;;4934886;29;20047;-72
2023/08/09 09:11:37;;;;;;;5.43;1.30;;;26.00;77.00;;;;;;4934732;29;20027;-73
2023/08/09 09:14:13;;;;;;;12.82;1.45;;;26.00;73.20;;;;;;4935107;29;20028;-72
2023/08/09 09:16:40;;;;;;;5.65;1.30;;;26.10;74.20;;;;;;4934944;29;20114;-73
2023/08/09 09:19:06;;;;;;;4.70;1.67;;;26.10;72.80;;;;;;4917746;29;20035;-73
2023/08/09 09:21:35;;;;;;;3.55;1.60;;;26.40;74.00;;;;;;4934982;29;20015;-74
2023/08/09 09:24:08;;;;;;;2.22;1.40;;;26.60;76.30;;;;;;4934493;29;20032;-75
2023/08/09 09:26:35;;;;;;;2.63;1.85;;;26.70;74.60;;;;;;4934871;29;20044;-73
2023/08/09 09:29:01;;;;;;;3.40;1.40;;;26.40;72.30;;;;;;4934619;29;20517;-73
2023/08/09 09:31:39;;;;;;;2.40;1.17;;;26.30;72.20;;;;;;4934715;29;20067;-73
2023/08/09 09:34:09;;;;;;;2.15;1.30;;;25.60;69.00;;;;;;4934808;29;20023;-72
2023/08/09 09:36:48;;;;;;;2.78;1.55;;;26.40;76.40;;;;;;4934332;29;20067;-73
2023/08/09 09:39:14;;;;;;;2.38;1.17;;;26.70;75.00;;;;;;4934716;29;20106;-72
2023/08/09 09:41:47;;;;;;;4.00;1.30;;;26.90;73.80;;;;;;4934600;29;20120;-72
2023/08/09 09:44:18;;;;;;;3.53;1.33;;;26.80;72.70;;;;;;4934511;29;20032;-72
2023/08/09 09:46:43;;;;;;;2.60;1.35;;;27.00;69.90;;;;;;4934473;29;20079;-73
2023/08/09 09:49:09;;;;;;;5.43;1.45;;;27.00;68.20;;;;;;4934502;29;20055;-74
2023/08/09 09:51:36;;;;;;;2.97;1.17;;;26.60;70.00;;;;;;4934538;29;20031;-73
2023/08/09 09:54:04;;;;;;;2.10;1.30;;;26.70;83.30;;;;;;4934517;29;20114;-73
2023/08/09 09:56:30;;;;;;;2.45;1.38;;;26.70;72.70;;;;;;4934467;29;20099;-73
2023/08/09 09:58:55;;;;;;;3.72;1.52;;;26.50;71.10;;;;;;4917007;29;20127;-73
2023/08/09 10:01:25;;;;;;;3.33;1.67;;;26.70;72.00;;;;;;4934357;29;20020;-73
2023/08/09 10:04:07;;;;;;;2.97;1.05;;;26.60;70.40;;;;;;4934698;29;20035;-73
2023/08/09 10:06:39;;;;;;;1.88;1.10;;;26.70;69.60;;;;;;4937861;29;20039;-73
2023/08/09 10:09:08;;;;;;;1.65;1.02;;;26.10;68.80;;;;;;4937744;29;20395;-73
2023/08/09 10:11:34;;;;;;;2.88;1.25;;;26.10;70.80;;;;;;4937900;29;20432;-73
2023/08/09 10:14:04;;;;;;;2.72;1.30;;;26.30;71.20;;;;;;4937704;29;20032;-73
2023/08/09 10:16:32;;;;;;;1.95;1.20;;;26.40;70.90;;;;;;4937904;29;20036;-73
2023/08/09 10:19:05;;;;;;;3.72;1.73;;;26.30;69.70;;;;;;4937758;29;20138;-75
2023/08/09 10:21:32;;;;;;;1.63;1.35;;;26.40;71.30;;;;;;4937952;29;20122;-72
2023/08/09 10:24:14;;;;;;;2.95;1.33;;;26.20;70.60;;;;;;4937593;29;20028;-72
2023/08/09 10:26:46;;;;;;;3.22;1.30;;;25.80;71.30;;;;;;4937812;29;20491;-73
2023/08/09 10:29:13;;;;;;;2.00;1.10;;;25.80;72.00;;;;;;4937675;29;20043;-72
2023/08/09 10:31:59;;;;;;;1.83;1.10;;;25.90;70.40;;;;;;4937725;29;20027;-73
2023/08/09 10:34:35;;;;;;;3.80;1.38;;;25.90;68.50;;;;;;4927382;29;20023;-73
2023/08/09 10:37:02;;;;;;;2.67;1.30;;;26.10;68.90;;;;;;4937435;29;20034;-72
2023/08/09 10:39:30;;;;;;;3.60;1.35;;;26.10;69.80;;;;;;4937350;29;20032;-72
2023/08/09 10:42:01;;;;;;;5.10;1.17;;;25.70;67.40;;;;;;4937455;29;20392;-73
2023/08/09 10:44:40;;;;;;;1.13;1.00;;;25.90;68.30;;;;;;4937291;29;20032;-72
2023/08/09 10:47:12;;;;;;;2.70;1.23;;;25.80;67.50;;;;;;4937374;29;20469;-73
2023/08/09 10:49:47;;;;;;;2.05;1.17;;;25.30;68.20;;;;;;4937375;29;20032;-73
2023/08/09 10:52:37;;;;;;;1.67;1.25;;;25.70;67.90;;;;;;4937114;29;20468;-73
2023/08/09 10:55:26;;;;;;;3.30;1.42;;;26.20;70.60;;;;;;4928224;29;20047;-73
2023/08/09 10:57:54;;;;;;;5.05;1.58;;;26.60;71.80;;;;;;4928019;29;20070;-73
2023/08/09 11:00:22;;;;;;;3.63;1.50;;;26.70;73.20;;;;;;4936772;29;20035;-73
2023/08/09 11:02:50;;;;;;;3.67;2.17;;;27.10;74.90;;;;;;4937580;29;20066;-73
2023/08/09 11:05:17;;;;;;;1.83;1.25;;;26.90;69.60;;;;;;4936835;29;20032;-73
2023/08/09 11:07:44;;;;;;;3.25;1.30;;;26.90;70.20;;;;;;4936661;29;20055;-73
2023/08/09 11:10:12;;;;;;;1.40;1.30;;;27.00;69.80;;;;;;4937430;29;20040;-72
2023/08/09 11:12:44;;;;;;;2.35;1.20;;;26.60;68.60;;;;;;4936855;29;20042;-72
2023/08/09 11:15:11;;;;;;;8.85;1.80;;;26.80;71.20;;;;;;4936851;29;20020;-72
2023/08/09 11:17:49;;;;;;;3.80;1.70;;;26.80;71.80;;;;;;4936665;29;20028;-72
2023/08/09 11:20:16;;;;;;;1.98;1.52;;;26.60;69.20;;;;;;4936765;29;20428;-72
2023/08/09 11:22:55;;;;;;;2.65;1.23;;;26.80;72.20;;;;;;4936892;29;20475;-72
2023/08/09 11:25:23;;;;;;;2.80;1.42;;;26.70;70.30;;;;;;4936296;29;20036;-72
2023/08/09 11:27:53;;;;;;;1.85;1.30;;;26.60;70.80;;;;;;4936751;29;20056;-72
2023/08/09 11:30:20;;;;;;;3.50;1.20;;;26.60;69.30;;;;;;4936537;29;20031;-72
2023/08/09 11:33:04;;;;;;;1.52;1.20;;;26.70;70.80;;;;;;4936668;29;20114;-73
2023/08/09 11:35:43;;;;;;;3.40;1.48;;;26.40;65.90;;;;;;4936696;29;20028;-72
2023/08/09 11:38:10;;;;;;;3.90;1.50;;;26.70;71.50;;;;;;4936068;29;20028;-73
2023/08/09 11:41:02;;;;;;;3.20;1.80;;;27.00;71.60;;;;;;4936517;29;20542;-72
2023/08/09 11:43:28;;;;;;;;;;;27.10;71.30;;;;;;4934569;29;20035;-73
2023/08/09 11:45:55;;;;;;;1.67;1.05;;;27.20;69.50;;;;;;4936182;29;20278;-73
2023/08/09 11:48:27;;;;;;;3.08;1.95;;;26.90;67.60;;;;;;4935969;29;20024;-73
2023/08/09 11:51:19;;;;;;;2.65;1.40;;;26.80;70.30;;;;;;4936017;29;20028;-73
2023/08/09 11:53:48;;;;;;;2.90;1.35;;;26.90;69.50;;;;;;4934572;29;20032;-73
2023/08/09 11:56:18;;;;;;;3.25;1.40;;;26.80;70.90;;;;;;4936098;29;20361;-73
2023/08/09 11:58:47;;;;;;;4.88;1.35;;;26.70;67.80;;;;;;4936063;29;20499;-73
2023/08/09 12:01:34;;;;;;;2.40;1.60;;;26.90;69.70;;;;;;4935997;29;20417;-73
2023/08/09 12:04:06;;;;;;;3.33;1.33;;;27.10;72.10;;;;;;4936225;29;20036;-73
2023/08/09 12:06:43;;;;;;;2.13;1.40;;;26.80;67.50;;;;;;4918363;29;20052;-73
2023/08/09 12:09:31;;;;;;;4.85;1.50;;;26.80;70.40;;;;;;4935406;29;20056;-73
2023/08/09 12:12:09;;;;;;;7.57;1.55;;;26.90;71.00;;;;;;4935944;29;20120;-73
2023/08/09 12:14:43;;;;;;;4.95;1.60;;;26.90;72.10;;;;;;4923907;29;20063;-73
2023/08/09 12:17:20;;;;;;;1.92;1.40;;;27.00;71.40;;;;;;4935436;29;20040;-73
2023/08/09 12:19:46;;;;;;;3.53;1.70;;;27.10;70.70;;;;;;4936111;29;20054;-73
2023/08/09 12:22:13;;;;;;;2.92;1.50;;;27.20;68.50;;;;;;4917573;29;20063;-73
2023/08/09 12:24:39;;;;;;;3.67;1.55;;;27.00;68.40;;;;;;4935522;29;20031;-73
2023/08/09 12:27:06;;;;;;;2.08;1.38;;;27.10;72.90;;;;;;4932659;29;20636;-75
2023/08/09 12:29:32;;;;;;;5.35;1.95;;;27.10;71.30;;;;;;4938474;29;20074;-75
2023/08/09 12:31:59;;;;;;;2.22;1.55;;;27.20;71.80;;;;;;4936467;29;20059;-76
2023/08/09 12:34:26;;;;;;;4.10;1.88;;;27.30;69.60;;;;;;4900582;29;20024;-74
2023/08/09 12:36:53;;;;;;;4.70;1.63;;;27.10;69.00;;;;;;4931347;29;20093;-75
2023/08/09 12:39:20;;;;;;;2.78;1.13;;;27.10;67.30;;;;;;4936154;29;20491;-73
2023/08/09 12:41:46;;;;;;;2.45;1.38;;;27.10;67.30;;;;;;4935700;29;20023;-74
2023/08/09 12:44:13;;;;;;;3.13;1.75;;;27.20;67.50;;;;;;4936505;29;20031;-74
2023/08/09 12:46:40;;;;;;;2.90;1.27;;;27.50;66.80;;;;;;4936249;29;20563;-75
2023/08/09 12:49:06;;;;;;;4.03;1.55;;;27.70;70.40;;;;;;4936245;29;20099;-73